This is the latest recevied weather packets stored in our database for station/object KD2FGL-13. If no packets are shown the sender has not sent any weather packets the latest 10 day(s).
| Time | Temp. | Humidity | Pressure | Rain* | Wind** | Luminosity | Snow |
|---|---|---|---|---|---|---|---|
| 1787763190 | 26.67° C | 43% | 1020.7 hPa | 0 mm | - | - | - |
| 1787762279 | 26.11° C | 44% | 1020.9 hPa | 0 mm | - | - | - |
| 1787760457 | 25.56° C | 44% | 1020.9 hPa | 0 mm | - | - | - |
| 1787760151 | 25.56° C | 44% | 1021 hPa | 0 mm | - | - | - |
| 1787759847 | 25.56° C | 44% | 1021.1 hPa | 0 mm | - | - | - |
| 1787759545 | 26.11° C | 43% | 1021 hPa | 0 mm | - | - | - |
| 1787759240 | 26.11° C | 43% | 1021.1 hPa | 0 mm | - | - | - |
| 1787758935 | 26.11° C | 43% | 1021.1 hPa | 0 mm | - | - | - |
| 1787758024 | 26.67° C | 43% | 1021.2 hPa | 0 mm | - | - | - |
| 1787757416 | 26.11° C | 43% | 1021.2 hPa | 0 mm | - | - | - |
| 1787756808 | 26.67° C | 43% | 1021.3 hPa | 0 mm | - | - | - |
| 1787754377 | 25.56° C | 46% | 1021.3 hPa | 0 mm | - | - | - |
| 1787754073 | 25.56° C | 46% | 1021.1 hPa | 0 mm | - | - | - |
| 1787753465 | 25.56° C | 46% | 1021.2 hPa | 0 mm | - | - | - |
| 1787753161 | 25.56° C | 47% | 1021 hPa | 0 mm | - | - | - |
| 1787751945 | 24.44° C | 51% | 1021 hPa | 0 mm | - | - | - |
| 1787751339 | 23.89° C | 54% | 1020.9 hPa | 0 mm | - | - | - |
| 1787749211 | 19.44° C | 65% | 1021.4 hPa | 0 mm | - | - | - |
| 1787748906 | 18.89° C | 66% | 1021.6 hPa | 0 mm | - | - | - |
| 1787748602 | 18.33° C | 66% | 1021.5 hPa | 0 mm | - | - | - |
| 1787747995 | 17.78° C | 66% | 1021.6 hPa | 0 mm | - | - | - |
| 1787746474 | 16.67° C | 64% | 1021.7 hPa | 0 mm | - | - | - |
| 1787746170 | 16.67° C | 64% | 1021.7 hPa | 0 mm | - | - | - |
| 1787744651 | 16.11° C | 63% | 1021.5 hPa | 0 mm | - | - | - |
| 1787744349 | 16.11° C | 63% | 1021.4 hPa | 0 mm | - | - | - |
* Rain since midnight (hover to see other rain measurements)
** Current wind speed in m/s (hover to see current wind gust speed)